createdAt,value
2018-11-01T00:01:53.426Z,77.01
2018-11-01T00:04:21.789Z,76.99
2018-11-01T00:06:50.183Z,77.27
2018-11-01T00:09:18.551Z,77.24
2018-11-01T00:11:46.942Z,77.56
2018-11-01T00:14:15.314Z,77.52
2018-11-01T00:16:43.720Z,78.12
2018-11-01T00:19:12.091Z,77.76
2018-11-01T00:21:40.483Z,77.11
2018-11-01T00:24:08.862Z,77.93
2018-11-01T00:26:37.261Z,77.88
2018-11-01T00:29:05.877Z,78.00
2018-11-01T00:31:34.287Z,77.54
2018-11-01T00:34:02.687Z,78.00
2018-11-01T00:36:31.062Z,78.31
2018-11-01T00:38:59.598Z,78.12
2018-11-01T00:41:27.970Z,78.37
2018-11-01T00:43:56.365Z,78.57
2018-11-01T00:46:24.738Z,78.26
2018-11-01T00:48:53.126Z,78.65
2018-11-01T00:51:21.501Z,78.55
2018-11-01T00:53:49.894Z,78.64
2018-11-01T00:56:18.266Z,78.80
2018-11-01T00:58:46.676Z,79.23
2018-11-01T01:01:15.065Z,78.97
2018-11-01T01:03:43.467Z,78.54
2018-11-01T01:06:11.849Z,79.42
2018-11-01T01:08:40.243Z,79.48
2018-11-01T01:11:08.614Z,79.64
2018-11-01T01:13:37.078Z,79.66
2018-11-01T01:16:05.722Z,79.77
2018-11-01T01:18:34.118Z,80.12
2018-11-01T01:21:02.486Z,80.18
2018-11-01T01:23:30.882Z,79.92
2018-11-01T01:25:59.253Z,80.72
2018-11-01T01:28:27.641Z,80.45
2018-11-01T01:30:56.010Z,80.01
2018-11-01T01:33:24.432Z,80.26
2018-11-01T01:35:52.799Z,80.06
2018-11-01T01:38:21.193Z,80.49
2018-11-01T01:40:49.554Z,80.79
2018-11-01T01:43:17.950Z,80.25
2018-11-01T01:45:46.424Z,80.70
2018-11-01T01:48:14.814Z,80.85
2018-11-01T01:50:43.218Z,80.29
2018-11-01T01:53:11.598Z,81.02
2018-11-01T01:55:39.974Z,80.95
2018-11-01T01:58:08.374Z,80.93
2018-11-01T02:00:36.741Z,80.45
2018-11-01T02:03:05.270Z,81.04
2018-11-01T02:05:33.643Z,81.10
2018-11-01T02:08:02.039Z,80.80
2018-11-01T02:10:30.409Z,80.61
2018-11-01T02:12:58.808Z,80.54
2018-11-01T02:15:27.190Z,80.90
2018-11-01T02:17:55.612Z,80.55
2018-11-01T02:20:23.987Z,80.78
2018-11-01T02:22:52.358Z,80.88
2018-11-01T02:25:20.745Z,80.56
2018-11-01T02:27:54.491Z,81.14
2018-11-01T02:30:22.879Z,81.50
2018-11-01T02:32:51.270Z,81.29
2018-11-01T02:35:20.207Z,81.13
2018-11-01T02:37:48.691Z,80.80
2018-11-01T02:40:17.465Z,81.49
2018-11-01T02:42:45.836Z,81.18
2018-11-01T02:45:14.950Z,81.12
2018-11-01T02:47:43.318Z,81.74
2018-11-01T02:50:12.531Z,81.98
2018-11-01T02:52:41.090Z,81.63
2018-11-01T02:55:10.104Z,81.46
2018-11-01T02:57:38.492Z,81.58
2018-11-01T03:00:13.209Z,81.43
2018-11-01T03:02:41.612Z,82.01
2018-11-01T03:05:10.790Z,81.84
2018-11-01T03:07:39.190Z,81.54
2018-11-01T03:10:09.046Z,80.98
2018-11-01T03:12:37.446Z,80.86
2018-11-01T03:15:07.150Z,81.44
2018-11-01T03:17:35.532Z,81.56
2018-11-01T03:20:03.918Z,81.41
2018-11-01T03:22:32.291Z,81.65
2018-11-01T03:25:00.682Z,82.00
2018-11-01T03:27:29.062Z,81.98
2018-11-01T03:29:57.454Z,81.59
2018-11-01T03:32:25.885Z,81.18
2018-11-01T03:34:54.276Z,81.71
2018-11-01T03:37:22.651Z,81.87
2018-11-01T03:39:51.184Z,81.42
2018-11-01T03:42:19.558Z,81.73
2018-11-01T03:44:47.949Z,81.48
2018-11-01T03:47:16.326Z,82.22
2018-11-01T03:49:44.739Z,81.94
2018-11-01T03:52:13.144Z,82.26
2018-11-01T03:54:41.554Z,82.23
2018-11-01T03:57:10.018Z,82.41
2018-11-01T03:59:38.416Z,82.47
2018-11-01T04:02:06.803Z,82.36
2018-11-01T04:04:35.195Z,82.67
2018-11-01T04:07:03.570Z,82.94
2018-11-01T04:09:31.976Z,83.38
2018-11-01T04:12:00.350Z,83.51
2018-11-01T04:14:28.719Z,82.95
2018-11-01T04:16:57.214Z,82.65
2018-11-01T04:19:25.512Z,82.77
2018-11-01T04:22:02.235Z,83.40
2018-11-01T04:24:30.619Z,83.75
2018-11-01T04:26:59.017Z,83.40
2018-11-01T04:29:27.390Z,83.41
2018-11-01T04:31:55.785Z,83.24
2018-11-01T04:34:24.179Z,83.07
2018-11-01T04:36:52.586Z,82.80
2018-11-01T04:39:20.964Z,82.97
2018-11-01T04:41:49.368Z,83.09
2018-11-01T04:44:17.759Z,83.20
2018-11-01T04:46:46.176Z,83.21
2018-11-01T04:49:14.563Z,82.99
2018-11-01T04:51:42.958Z,83.11
2018-11-01T04:54:11.326Z,82.54
2018-11-01T04:56:39.735Z,83.24
2018-11-01T04:59:08.109Z,82.98
2018-11-01T05:01:36.502Z,83.60
2018-11-01T05:04:05.213Z,83.27
2018-11-01T05:06:33.615Z,83.60
2018-11-01T05:09:02.009Z,83.95
2018-11-01T05:11:30.407Z,84.14
2018-11-01T05:13:58.783Z,83.42
2018-11-01T05:16:27.179Z,84.13
2018-11-01T05:18:55.555Z,84.46
2018-11-01T05:21:23.956Z,84.29
2018-11-01T05:23:52.330Z,84.36
2018-11-01T05:26:20.735Z,84.35
2018-11-01T05:28:49.118Z,84.23
2018-11-01T05:31:17.595Z,84.66
2018-11-01T05:33:45.982Z,84.21
2018-11-01T05:36:14.378Z,84.15
2018-11-01T05:38:42.785Z,83.92
2018-11-01T05:41:11.191Z,84.14
2018-11-01T05:43:39.564Z,84.25
2018-11-01T05:46:07.958Z,84.17
2018-11-01T05:48:36.335Z,84.66
2018-11-01T05:51:04.735Z,84.66
2018-11-01T05:53:33.126Z,84.30
2018-11-01T05:56:01.532Z,84.22
2018-11-01T05:58:29.917Z,84.25
2018-11-01T06:00:58.357Z,84.14
2018-11-01T06:03:26.733Z,83.83
2018-11-01T06:05:55.127Z,83.77
2018-11-01T06:08:27.480Z,83.81
2018-11-01T06:10:55.895Z,83.87
2018-11-01T06:13:24.307Z,83.37
2018-11-01T06:15:52.679Z,83.94
2018-11-01T06:18:21.095Z,83.73
2018-11-01T06:20:49.568Z,84.05
2018-11-01T06:23:17.903Z,84.14
2018-11-01T06:25:46.297Z,84.13
2018-11-01T06:28:14.686Z,84.08
2018-11-01T06:30:43.050Z,84.34
2018-11-01T06:33:11.478Z,84.36
2018-11-01T06:35:48.643Z,84.28
2018-11-01T06:38:17.105Z,83.90
2018-11-01T06:40:45.484Z,83.68
2018-11-01T06:43:13.891Z,84.35
2018-11-01T06:45:42.264Z,84.17
2018-11-01T06:48:10.663Z,84.11
2018-11-01T06:50:39.038Z,83.90
2018-11-01T06:53:07.445Z,83.55
2018-11-01T06:55:35.822Z,83.60
2018-11-01T06:58:04.223Z,84.00
2018-11-01T07:00:32.623Z,83.68
2018-11-01T07:03:01.039Z,83.55
2018-11-01T07:05:29.456Z,83.79
2018-11-01T07:07:57.863Z,83.50
2018-11-01T07:10:26.240Z,83.26
2018-11-01T07:12:54.649Z,83.84
2018-11-01T07:15:23.026Z,83.59
2018-11-01T07:17:51.417Z,83.22
2018-11-01T07:20:19.794Z,83.33
2018-11-01T07:22:48.182Z,83.27
2018-11-01T07:25:17.518Z,83.49
2018-11-01T07:27:45.876Z,83.04
2018-11-01T07:30:18.217Z,83.16
2018-11-01T07:32:46.845Z,83.62
2018-11-01T07:35:15.674Z,83.64
2018-11-01T07:37:44.607Z,83.81
2018-11-01T07:40:14.401Z,83.23
2018-11-01T07:42:42.859Z,82.57
2018-11-01T07:45:12.188Z,83.22
2018-11-01T07:47:41.498Z,83.33
2018-11-01T07:50:10.778Z,83.26
2018-11-01T07:52:39.753Z,82.33
2018-11-01T07:55:09.894Z,82.42
2018-11-01T07:57:38.299Z,82.26
2018-11-01T08:00:09.926Z,82.31
2018-11-01T08:02:38.361Z,82.68
2018-11-01T08:05:07.817Z,82.67
2018-11-01T08:07:36.217Z,82.99
2018-11-01T08:10:05.648Z,82.93
2018-11-01T08:12:34.051Z,82.89
2018-11-01T08:15:02.435Z,82.82
2018-11-01T08:17:30.805Z,82.98
2018-11-01T08:19:59.483Z,83.24
2018-11-01T08:22:27.707Z,83.21
2018-11-01T08:24:56.102Z,82.61
2018-11-01T08:27:24.473Z,82.96
2018-11-01T08:29:53.866Z,82.86
2018-11-01T08:32:22.257Z,82.83
2018-11-01T08:34:50.651Z,82.87
2018-11-01T08:37:19.031Z,82.66
2018-11-01T08:39:47.465Z,82.74
2018-11-01T08:42:15.851Z,82.86
2018-11-01T08:44:44.237Z,82.77
2018-11-01T08:47:12.619Z,82.52
2018-11-01T08:49:41.023Z,82.74
2018-11-01T08:52:09.403Z,82.71
2018-11-01T08:54:37.806Z,82.29
2018-11-01T08:57:06.475Z,82.43
2018-11-01T08:59:34.871Z,82.14
2018-11-01T09:02:03.289Z,82.29
2018-11-01T09:04:31.933Z,82.03
2018-11-01T09:07:00.315Z,81.99
2018-11-01T09:09:28.714Z,82.23
2018-11-01T09:11:57.098Z,82.09
2018-11-01T09:14:25.567Z,82.31
2018-11-01T09:16:53.907Z,82.41
2018-11-01T09:19:22.322Z,82.27
2018-11-01T09:21:50.715Z,82.14
2018-11-01T09:24:19.127Z,82.25
2018-11-01T09:26:47.571Z,82.29
2018-11-01T09:29:15.934Z,81.99
2018-11-01T09:31:44.312Z,81.52
2018-11-01T09:34:12.731Z,81.39
2018-11-01T09:36:41.100Z,81.06
2018-11-01T09:39:11.283Z,81.25
2018-11-01T09:41:39.653Z,80.40
2018-11-01T09:44:08.425Z,80.17
2018-11-01T09:46:37.228Z,80.20
2018-11-01T09:49:05.353Z,80.28
2018-11-01T09:51:33.752Z,80.05
2018-11-01T09:54:02.150Z,82.69
2018-11-01T09:56:30.714Z,84.80
2018-11-01T09:58:59.072Z,85.38
2018-11-01T10:01:27.449Z,83.83
2018-11-01T10:03:55.863Z,81.79
2018-11-01T10:06:24.235Z,78.38
2018-11-01T10:08:54.257Z,76.17
2018-11-01T10:11:22.740Z,75.45
2018-11-01T10:13:51.106Z,75.29
2018-11-01T10:16:19.603Z,75.45
2018-11-01T10:18:47.982Z,74.40
2018-11-01T10:21:16.385Z,74.57
2018-11-01T10:23:44.793Z,74.67
2018-11-01T10:26:13.223Z,74.84
2018-11-01T10:28:41.600Z,74.59
2018-11-01T10:31:10.086Z,75.17
2018-11-01T10:33:38.502Z,74.88
2018-11-01T10:36:06.963Z,74.60
2018-11-01T10:38:35.339Z,74.99
2018-11-01T10:41:03.740Z,75.34
2018-11-01T10:43:32.114Z,75.52
2018-11-01T10:46:00.523Z,75.40
2018-11-01T10:48:28.902Z,75.13
2018-11-01T10:50:57.294Z,76.16
2018-11-01T10:53:25.674Z,74.10
2018-11-01T10:55:54.075Z,73.46
2018-11-01T10:58:22.465Z,73.53
2018-11-01T11:00:56.456Z,72.97
2018-11-01T11:03:24.683Z,72.57
2018-11-01T11:05:53.092Z,73.16
2018-11-01T11:08:21.470Z,72.68
2018-11-01T11:10:49.882Z,72.70
2018-11-01T11:13:18.255Z,73.36
2018-11-01T11:15:46.685Z,72.90
2018-11-01T11:18:15.068Z,73.61
2018-11-01T11:20:43.682Z,73.13
2018-11-01T11:23:11.873Z,71.51
2018-11-01T11:25:40.282Z,71.89
2018-11-01T11:28:08.694Z,72.54
2018-11-01T11:30:37.122Z,72.00
2018-11-01T11:33:05.773Z,71.90
2018-11-01T11:35:34.218Z,72.42
2018-11-01T11:38:02.591Z,72.14
2018-11-01T11:40:31.002Z,72.13
2018-11-01T11:42:59.383Z,71.14
2018-11-01T11:45:27.782Z,70.78
2018-11-01T11:47:56.182Z,70.27
2018-11-01T11:50:24.567Z,70.28
2018-11-01T11:52:52.995Z,70.32
2018-11-01T11:55:21.379Z,69.68
2018-11-01T11:57:49.781Z,70.61
2018-11-01T12:00:18.159Z,70.89
2018-11-01T12:02:46.831Z,70.43
2018-11-01T12:05:15.250Z,70.37
2018-11-01T12:07:43.637Z,69.83
2018-11-01T12:10:13.598Z,70.06
2018-11-01T12:12:42.256Z,70.21
2018-11-01T12:15:10.657Z,70.99
2018-11-01T12:17:39.263Z,71.00
2018-11-01T12:20:09.458Z,71.19
2018-11-01T12:22:37.866Z,70.41
2018-11-01T12:25:06.919Z,71.20
2018-11-01T12:27:35.345Z,71.04
2018-11-01T12:30:03.937Z,71.47
2018-11-01T12:32:32.362Z,70.58
2018-11-01T12:35:01.121Z,70.99
2018-11-01T12:37:29.738Z,71.55
2018-11-01T12:39:58.167Z,70.82
2018-11-01T12:42:26.548Z,70.51
2018-11-01T12:44:54.955Z,71.61
2018-11-01T12:47:23.325Z,71.74
2018-11-01T12:49:51.757Z,71.99
2018-11-01T12:52:20.146Z,71.39
2018-11-01T12:54:48.548Z,71.14
2018-11-01T12:57:16.923Z,71.55
2018-11-01T12:59:45.317Z,70.87
2018-11-01T13:02:13.707Z,71.64
2018-11-01T13:04:42.101Z,72.05
2018-11-01T13:07:10.495Z,71.35
2018-11-01T13:09:38.894Z,71.98
2018-11-01T13:12:07.266Z,72.46
2018-11-01T13:14:35.662Z,72.14
2018-11-01T13:17:04.041Z,72.21
2018-11-01T13:19:32.438Z,71.68
2018-11-01T13:22:00.825Z,71.38
2018-11-01T13:24:29.230Z,72.12
2018-11-01T13:26:57.602Z,72.16
2018-11-01T13:29:26.092Z,72.10
2018-11-01T13:31:54.566Z,71.54
2018-11-01T13:34:22.979Z,72.21
2018-11-01T13:36:51.390Z,71.83
2018-11-01T13:39:19.895Z,72.33
2018-11-01T13:41:48.301Z,72.15
2018-11-01T13:44:17.350Z,71.74
2018-11-01T13:46:45.951Z,72.01
2018-11-01T13:49:14.334Z,72.67
2018-11-01T13:51:42.793Z,72.02
2018-11-01T13:54:11.263Z,72.49
2018-11-01T13:56:39.774Z,72.46
2018-11-01T13:59:08.224Z,72.52
2018-11-01T14:01:36.610Z,72.98
2018-11-01T14:04:05.674Z,73.29
2018-11-01T14:06:34.062Z,73.25
2018-11-01T14:09:02.488Z,72.94
2018-11-01T14:11:30.890Z,73.58
2018-11-01T14:13:59.504Z,73.24
2018-11-01T14:16:27.699Z,73.95
2018-11-01T14:18:56.103Z,74.00
2018-11-01T14:21:24.478Z,74.12
2018-11-01T14:23:52.885Z,73.54
2018-11-01T14:26:21.275Z,74.51
2018-11-01T14:28:49.679Z,74.62
2018-11-01T14:31:18.221Z,74.99
2018-11-01T14:33:46.531Z,74.23
2018-11-01T14:36:15.159Z,75.32
2018-11-01T14:38:43.563Z,74.60
2018-11-01T14:41:11.960Z,74.75
2018-11-01T14:43:40.383Z,75.00
2018-11-01T14:46:08.766Z,74.77
2018-11-01T14:48:37.155Z,74.88
2018-11-01T14:51:05.590Z,75.66
2018-11-01T14:53:34.470Z,75.08
2018-11-01T14:56:03.611Z,75.33
2018-11-01T14:58:32.140Z,75.42
2018-11-01T15:00:59.298Z,75.41
2018-11-01T15:03:27.670Z,76.44
2018-11-01T15:05:56.067Z,75.61
2018-11-01T15:08:24.443Z,76.41
2018-11-01T15:10:52.853Z,75.70
2018-11-01T15:13:21.384Z,76.77
2018-11-01T15:15:49.659Z,76.03
2018-11-01T15:18:18.050Z,76.61
2018-11-01T15:20:46.460Z,76.16
2018-11-01T15:23:14.839Z,76.16
2018-11-01T15:25:43.230Z,76.75
2018-11-01T15:28:11.612Z,76.90
2018-11-01T15:30:40.002Z,76.23
2018-11-01T15:33:08.408Z,77.16
2018-11-01T15:35:36.811Z,76.62
2018-11-01T15:38:05.385Z,76.65
2018-11-01T15:40:33.791Z,77.50
2018-11-01T15:43:02.172Z,77.50
2018-11-01T15:45:30.685Z,77.73
2018-11-01T15:47:59.067Z,77.82
2018-11-01T15:50:27.511Z,78.45
2018-11-01T15:52:55.894Z,78.43
2018-11-01T15:55:24.296Z,78.83
2018-11-01T15:57:52.698Z,78.79
2018-11-01T16:00:21.108Z,78.16
2018-11-01T16:02:49.490Z,78.31
2018-11-01T16:05:17.900Z,78.65
2018-11-01T16:07:46.511Z,78.26
2018-11-01T16:10:15.039Z,78.77
2018-11-01T16:12:43.334Z,78.76
2018-11-01T16:15:14.331Z,78.94
2018-11-01T16:17:42.758Z,79.08
2018-11-01T16:20:11.221Z,78.92
2018-11-01T16:22:40.281Z,79.44
2018-11-01T16:25:08.691Z,79.67
2018-11-01T16:27:37.462Z,79.54
2018-11-01T16:30:06.551Z,79.59
2018-11-01T16:32:34.958Z,80.04
2018-11-01T16:35:03.387Z,79.60
2018-11-01T16:37:31.765Z,79.87
2018-11-01T16:40:00.408Z,79.48
2018-11-01T16:42:29.133Z,80.07
2018-11-01T16:44:57.483Z,79.72
2018-11-01T16:47:25.818Z,79.91
2018-11-01T16:49:54.440Z,79.79
2018-11-01T16:52:22.851Z,80.73
2018-11-01T16:54:51.267Z,80.38
2018-11-01T16:57:19.645Z,80.41
2018-11-01T16:59:48.064Z,80.37
2018-11-01T17:02:16.454Z,80.40
2018-11-01T17:04:44.866Z,79.94
2018-11-01T17:07:13.274Z,80.94
2018-11-01T17:09:41.680Z,80.93
2018-11-01T17:12:10.094Z,80.73
2018-11-01T17:14:38.502Z,81.15
2018-11-01T17:17:06.906Z,80.54
2018-11-01T17:19:35.291Z,81.24
2018-11-01T17:22:03.883Z,80.53
2018-11-01T17:24:32.274Z,81.01
2018-11-01T17:27:00.686Z,80.74
2018-11-01T17:29:29.160Z,81.12
2018-11-01T17:31:57.575Z,81.29
2018-11-01T17:34:26.022Z,80.82
2018-11-01T17:36:54.410Z,80.90
2018-11-01T17:39:22.907Z,81.75
2018-11-01T17:41:51.323Z,81.43
2018-11-01T17:44:19.703Z,81.50
2018-11-01T17:46:48.108Z,82.25
2018-11-01T17:49:16.486Z,81.64
2018-11-01T17:51:44.943Z,82.48
2018-11-01T17:54:14.841Z,82.49
2018-11-01T17:56:44.062Z,81.96
2018-11-01T17:59:12.454Z,82.38
2018-11-01T18:01:40.890Z,82.77
2018-11-01T18:04:09.894Z,82.66
2018-11-01T18:06:38.565Z,82.92
2018-11-01T18:09:09.221Z,82.27
2018-11-01T18:11:37.640Z,82.69
2018-11-01T18:14:06.198Z,83.35
2018-11-01T18:16:34.786Z,83.64
2018-11-01T18:19:03.159Z,83.86
2018-11-01T18:21:31.590Z,83.17
2018-11-01T18:23:59.986Z,83.51
2018-11-01T18:26:28.403Z,83.88
2018-11-01T18:28:56.815Z,83.14
2018-11-01T18:31:25.269Z,83.64
2018-11-01T18:33:53.658Z,83.72
2018-11-01T18:36:22.078Z,83.45
2018-11-01T18:38:50.459Z,83.51
2018-11-01T18:41:18.872Z,83.96
2018-11-01T18:43:47.259Z,83.76
2018-11-01T18:46:15.666Z,83.67
2018-11-01T18:48:44.418Z,83.75
2018-11-01T18:51:12.867Z,83.18
2018-11-01T18:53:41.245Z,83.16
2018-11-01T18:56:09.659Z,83.18
2018-11-01T18:58:38.140Z,82.99
2018-11-01T19:01:06.561Z,82.87
2018-11-01T19:03:34.971Z,82.95
2018-11-01T19:06:03.918Z,83.44
2018-11-01T19:08:32.327Z,83.60
2018-11-01T19:11:00.751Z,83.84
2018-11-01T19:13:29.172Z,82.98
2018-11-01T19:15:57.568Z,82.95
2018-11-01T19:18:25.968Z,83.07
2018-11-01T19:20:54.378Z,83.40
2018-11-01T19:23:22.764Z,83.29
2018-11-01T19:25:51.217Z,83.08
2018-11-01T19:28:19.615Z,83.64
2018-11-01T19:30:47.999Z,83.29
2018-11-01T19:33:16.638Z,83.33
2018-11-01T19:35:45.012Z,84.13
2018-11-01T19:38:13.434Z,84.23
2018-11-01T19:40:41.835Z,83.74
2018-11-01T19:43:10.238Z,84.38
2018-11-01T19:45:38.651Z,84.36
2018-11-01T19:48:07.148Z,83.62
2018-11-01T19:50:35.590Z,84.28
2018-11-01T19:53:04.004Z,84.58
2018-11-01T19:55:32.410Z,84.30
2018-11-01T19:58:00.827Z,83.77
2018-11-01T20:00:29.230Z,83.58
2018-11-01T20:02:57.638Z,84.12
2018-11-01T20:05:26.027Z,84.01
2018-11-01T20:07:54.433Z,83.85
2018-11-01T20:10:22.885Z,83.96
2018-11-01T20:12:51.271Z,83.86
2018-11-01T20:15:19.659Z,84.48
2018-11-01T20:17:48.074Z,84.28
2018-11-01T20:20:16.458Z,84.36
2018-11-01T20:22:45.730Z,84.37
2018-11-01T20:25:14.295Z,85.06
2018-11-01T20:27:42.816Z,84.98
2018-11-01T20:30:13.195Z,85.70
2018-11-01T20:32:42.334Z,85.24
2018-11-01T20:35:12.224Z,85.49
2018-11-01T20:37:40.928Z,86.27
2018-11-01T20:40:09.339Z,86.14
2018-11-01T20:42:37.781Z,86.59
2018-11-01T20:45:07.474Z,86.40
2018-11-01T20:47:36.094Z,86.41
2018-11-01T20:50:04.888Z,86.03
2018-11-01T20:52:33.352Z,86.01
2018-11-01T20:55:01.775Z,86.49
2018-11-01T20:57:30.245Z,86.16
2018-11-01T20:59:58.607Z,85.64
2018-11-01T21:02:27.094Z,86.44
2018-11-01T21:04:55.744Z,87.39
2018-11-01T21:07:24.250Z,86.81
2018-11-01T21:09:52.687Z,86.45
2018-11-01T21:12:21.095Z,86.69
2018-11-01T21:14:49.482Z,86.72
2018-11-01T21:17:17.924Z,86.59
2018-11-01T21:19:46.411Z,87.12
2018-11-01T21:22:15.551Z,87.26
2018-11-01T21:24:44.206Z,87.85
2018-11-01T21:27:12.611Z,87.81
2018-11-01T21:29:41.051Z,88.22
2018-11-01T21:32:09.892Z,88.36
2018-11-01T21:34:38.642Z,88.86
2018-11-01T21:37:07.360Z,88.83
2018-11-01T21:39:35.768Z,89.35
2018-11-01T21:42:04.373Z,89.58
2018-11-01T21:44:32.800Z,90.24
2018-11-01T21:47:01.353Z,90.21
2018-11-01T21:49:29.738Z,90.37
2018-11-01T21:51:58.178Z,90.38
2018-11-01T21:54:26.582Z,89.60
2018-11-01T21:56:54.959Z,89.54
2018-11-01T21:59:23.366Z,90.12
2018-11-01T22:01:51.778Z,90.01
2018-11-01T22:04:20.190Z,90.52
2018-11-01T22:06:48.574Z,90.49
2018-11-01T22:09:16.977Z,90.34
2018-11-01T22:11:45.374Z,91.28
2018-11-01T22:14:13.805Z,91.09
2018-11-01T22:16:42.186Z,91.49
2018-11-01T22:19:10.610Z,91.60
2018-11-01T22:21:39.011Z,91.41
2018-11-01T22:24:07.414Z,90.54
2018-11-01T22:26:35.954Z,90.42
2018-11-01T22:29:04.367Z,90.66
2018-11-01T22:31:32.752Z,90.15
2018-11-01T22:34:01.168Z,90.34
2018-11-01T22:36:29.562Z,90.27
2018-11-01T22:38:57.980Z,90.24
2018-11-01T22:41:26.367Z,90.78
2018-11-01T22:43:54.783Z,89.74
2018-11-01T22:46:23.158Z,90.05
2018-11-01T22:48:51.572Z,90.61
2018-11-01T22:51:19.974Z,89.67
2018-11-01T22:53:48.458Z,89.75
2018-11-01T22:56:16.786Z,89.76
2018-11-01T22:58:45.219Z,89.60
2018-11-01T23:01:13.607Z,89.76
2018-11-01T23:03:42.051Z,89.58
2018-11-01T23:06:10.422Z,89.18
2018-11-01T23:08:38.831Z,89.17
2018-11-01T23:11:07.221Z,89.49
2018-11-01T23:13:35.631Z,88.96
2018-11-01T23:16:03.997Z,88.72
2018-11-01T23:18:32.398Z,89.14
2018-11-01T23:21:00.770Z,89.01
2018-11-01T23:23:29.175Z,89.01
2018-11-01T23:25:57.578Z,88.32
2018-11-01T23:28:25.998Z,88.06
2018-11-01T23:30:54.384Z,87.98
2018-11-01T23:33:22.786Z,87.96
2018-11-01T23:35:51.187Z,87.98
2018-11-01T23:38:24.895Z,88.08
2018-11-01T23:40:58.685Z,88.33
2018-11-01T23:43:32.518Z,87.96
2018-11-01T23:46:06.314Z,88.62
2018-11-01T23:48:33.899Z,88.08
2018-11-01T23:51:07.087Z,88.60
2018-11-01T23:53:39.078Z,88.35
2018-11-01T23:56:07.462Z,87.80
2018-11-01T23:58:35.868Z,88.04
